Time;durP1;ratioP1;P1;durP2;ratioP2;P2;SDS_P1;SDS_P2;PMS_P1;PMS_P2;Temp;Humidity;BMP_temperature;BMP_pressure;BME280_temperature;BME280_humidity;BME280_pressure;Samples;Min_cycle;Max_cycle;Signal;HPM_P1;HPM_P2
2023/12/18 00:01:44;;;;;;;;;;;17.20;62.80;;;;;;10367139;28;93819;-44
2023/12/18 00:06:46;;;;;;;;;;;17.20;62.90;;;;;;10367024;28;95959;-45
2023/12/18 00:11:48;;;;;;;;;;;17.20;62.80;;;;;;10366782;28;93456;-48
2023/12/18 00:16:49;;;;;;;;;;;17.20;62.50;;;;;;10352303;28;94928;-48
2023/12/18 00:21:51;;;;;;;;;;;17.20;62.30;;;;;;10365453;28;93786;-47
2023/12/18 00:26:52;;;;;;;;;;;17.20;62.00;;;;;;10365712;28;92687;-46
2023/12/18 00:31:54;;;;;;;;;;;17.20;61.90;;;;;;10366313;28;94998;-46
2023/12/18 00:36:56;;;;;;;;;;;17.10;61.60;;;;;;10364864;28;94517;-46
2023/12/18 00:41:57;;;;;;;;;;;17.10;61.40;;;;;;10362653;28;96226;-43
2023/12/18 00:46:59;;;;;;;;;;;17.10;61.60;;;;;;10359749;28;94756;-45
2023/12/18 00:52:01;;;;;;;;;;;17.10;61.90;;;;;;10362329;28;93253;-43
2023/12/18 00:57:03;;;;;;;;;;;17.10;62.10;;;;;;10365831;28;93707;-47
2023/12/18 01:02:04;;;;;;;;;;;17.10;62.10;;;;;;10364209;28;93413;-47
2023/12/18 01:07:06;;;;;;;;;;;17.10;62.00;;;;;;10363990;28;93676;-47
2023/12/18 01:12:08;;;;;;;;;;;17.10;61.60;;;;;;10364616;28;93421;-48
2023/12/18 01:17:10;;;;;;;;;;;17.10;61.30;;;;;;10353227;28;93907;-45
2023/12/18 01:22:13;;;;;;;;;;;17.10;61.10;;;;;;10357328;28;94490;-46
2023/12/18 01:27:14;;;;;;;;;;;17.10;60.80;;;;;;10369514;28;93483;-46
2023/12/18 01:32:19;;;;;;;;;;;17.10;60.70;;;;;;10345439;28;94885;-44
2023/12/18 01:37:20;;;;;;;;;;;17.10;60.50;;;;;;10374298;28;94293;-44
2023/12/18 01:42:22;;;;;;;;;;;17.10;60.60;;;;;;10372191;28;94496;-44
2023/12/18 01:47:24;;;;;;;;;;;17.00;61.00;;;;;;10371855;28;93280;-49
2023/12/18 01:52:26;;;;;;;;;;;17.00;61.40;;;;;;10345772;28;93621;-45
2023/12/18 01:57:27;;;;;;;;;;;17.00;61.30;;;;;;10370361;28;94735;-45
2023/12/18 02:07:35;;;;;;;;;;;17.00;60.90;;;;;;10207274;28;94214;-47
2023/12/18 02:12:36;;;;;;;;;;;17.00;60.70;;;;;;10239179;28;94353;-47
2023/12/18 02:17:38;;;;;;;;;;;17.00;60.50;;;;;;10231455;28;95042;-51
2023/12/18 02:22:45;;;;;;;;;;;17.00;60.30;;;;;;10242574;28;97806;-49
2023/12/18 02:27:48;;;;;;;;;;;17.00;60.10;;;;;;10232142;28;93356;-51
2023/12/18 02:32:50;;;;;;;;;;;17.00;59.90;;;;;;10225802;28;94382;-49
2023/12/18 02:37:52;;;;;;;;;;;17.00;60.30;;;;;;10239256;28;93424;-48
2023/12/18 02:42:54;;;;;;;;;;;16.90;60.60;;;;;;10231226;28;93468;-49
2023/12/18 02:47:56;;;;;;;;;;;16.90;60.90;;;;;;10240319;28;93645;-52
2023/12/18 02:52:58;;;;;;;;;;;16.90;60.80;;;;;;10235196;28;94755;-50
2023/12/18 02:57:59;;;;;;;;;;;16.90;60.60;;;;;;10239093;28;92695;-50
2023/12/18 03:03:01;;;;;;;;;;;16.90;60.40;;;;;;10222372;28;93442;-48
2023/12/18 03:08:03;;;;;;;;;;;16.90;60.10;;;;;;10224196;28;94149;-49
2023/12/18 03:13:05;;;;;;;;;;;16.80;60.00;;;;;;10227431;28;96613;-51
2023/12/18 03:18:06;;;;;;;;;;;16.90;59.80;;;;;;10227687;28;93868;-48
2023/12/18 03:23:08;;;;;;;;;;;16.90;59.70;;;;;;10237196;28;94366;-49
2023/12/18 03:28:12;;;;;;;;;;;16.80;59.40;;;;;;10241262;28;94806;-50
2023/12/18 03:33:13;;;;;;;;;;;16.80;59.90;;;;;;10228900;28;94063;-51
2023/12/18 03:38:15;;;;;;;;;;;16.80;60.30;;;;;;10232970;28;93843;-49
2023/12/18 03:43:17;;;;;;;;;;;16.70;60.30;;;;;;10229661;28;93828;-52
2023/12/18 03:48:19;;;;;;;;;;;16.70;60.30;;;;;;10229463;28;91787;-53
2023/12/18 03:53:21;;;;;;;;;;;16.80;60.00;;;;;;10221384;28;93589;-50
2023/12/18 03:58:23;;;;;;;;;;;16.70;59.90;;;;;;10241786;28;94153;-49
2023/12/18 04:03:24;;;;;;;;;;;16.70;59.70;;;;;;10214613;28;95874;-51
2023/12/18 04:08:26;;;;;;;;;;;16.70;59.60;;;;;;10216968;28;93473;-48
2023/12/18 04:13:28;;;;;;;;;;;16.70;60.70;;;;;;10228378;28;95118;-48
2023/12/18 04:18:29;;;;;;;;;;;16.70;59.90;;;;;;10240470;28;94398;-51
2023/12/18 04:23:31;;;;;;;;;;;16.70;60.10;;;;;;10221480;28;93839;-50
2023/12/18 04:28:33;;;;;;;;;;;16.70;60.30;;;;;;10225913;28;93619;-51
2023/12/18 04:33:37;;;;;;;;;;;16.70;60.30;;;;;;10231843;28;94232;-52
2023/12/18 04:38:40;;;;;;;;;;;16.70;60.50;;;;;;10215832;28;93834;-48
2023/12/18 04:43:42;;;;;;;;;;;16.70;60.60;;;;;;10217678;28;94424;-48
2023/12/18 04:48:43;;;;;;;;;;;16.70;60.70;;;;;;10227628;28;94202;-51
2023/12/18 04:53:45;;;;;;;;;;;16.60;60.80;;;;;;10229654;28;96098;-50
2023/12/18 04:58:47;;;;;;;;;;;16.60;61.00;;;;;;10226518;28;93703;-47
2023/12/18 05:03:49;;;;;;;;;;;16.60;61.10;;;;;;10235003;28;93276;-50
2023/12/18 05:08:51;;;;;;;;;;;16.60;61.10;;;;;;10227099;28;93376;-50
2023/12/18 05:13:53;;;;;;;;;;;16.60;61.20;;;;;;10247892;28;93215;-51
2023/12/18 05:18:56;;;;;;;;;;;16.60;61.30;;;;;;10241844;28;94371;-49
2023/12/18 05:23:58;;;;;;;;;;;16.60;61.40;;;;;;10232734;28;94633;-48
2023/12/18 05:29:00;;;;;;;;;;;16.60;61.50;;;;;;10245031;28;92578;-50
2023/12/18 05:34:02;;;;;;;;;;;16.60;61.60;;;;;;10245029;28;93377;-49
2023/12/18 05:39:03;;;;;;;;;;;16.60;61.80;;;;;;10252517;28;96385;-52
2023/12/18 05:44:05;;;;;;;;;;;16.50;61.80;;;;;;10243890;28;96962;-48
2023/12/18 05:49:07;;;;;;;;;;;16.60;62.00;;;;;;10237059;28;93372;-48
2023/12/18 05:54:09;;;;;;;;;;;16.70;61.80;;;;;;10235634;28;93435;-51
2023/12/18 05:59:10;;;;;;;;;;;16.90;61.60;;;;;;10211346;28;94814;-52
2023/12/18 06:04:12;;;;;;;;;;;17.00;61.30;;;;;;10242544;28;93352;-50
2023/12/18 06:09:14;;;;;;;;;;;17.10;61.10;;;;;;10240754;28;93515;-51
2023/12/18 06:14:16;;;;;;;;;;;17.10;61.00;;;;;;10218898;28;95831;-52
2023/12/18 06:19:18;;;;;;;;;;;17.10;61.00;;;;;;10230164;28;93756;-51
2023/12/18 06:24:20;;;;;;;;;;;17.10;60.90;;;;;;10241183;28;93421;-49
2023/12/18 06:29:22;;;;;;;;;;;17.10;61.00;;;;;;10233258;28;94877;-52
2023/12/18 06:34:24;;;;;;;;;;;17.10;61.00;;;;;;10242065;28;95909;-48
2023/12/18 06:39:26;;;;;;;;;;;17.10;61.00;;;;;;10238668;28;93973;-50
2023/12/18 06:44:28;;;;;;;;;;;17.10;61.20;;;;;;10226008;28;94740;-51
2023/12/18 06:49:29;;;;;;;;;;;17.10;61.20;;;;;;10249669;28;94484;-48
2023/12/18 06:54:33;;;;;;;;;;;17.00;61.30;;;;;;10239742;28;93449;-48
2023/12/18 06:59:35;;;;;;;;;;;17.00;61.50;;;;;;10231128;28;94108;-47
2023/12/18 07:04:37;;;;;;;;;;;17.00;63.10;;;;;;10220104;28;93391;-47
2023/12/18 07:09:39;;;;;;;;;;;17.00;64.30;;;;;;10228811;28;93294;-47
2023/12/18 07:14:41;;;;;;;;;;;17.00;64.30;;;;;;10247486;28;94924;-52
2023/12/18 07:19:43;;;;;;;;;;;17.00;64.40;;;;;;10227309;28;93770;-47
2023/12/18 07:24:45;;;;;;;;;;;17.10;64.30;;;;;;10225860;28;95688;-50
2023/12/18 07:29:47;;;;;;;;;;;17.00;64.10;;;;;;10243554;28;92935;-48
2023/12/18 07:34:49;;;;;;;;;;;17.00;64.10;;;;;;10227090;28;93501;-49
2023/12/18 07:39:51;;;;;;;;;;;17.00;64.10;;;;;;10229615;28;95829;-50
2023/12/18 07:44:53;;;;;;;;;;;17.00;64.20;;;;;;10204864;28;93647;-51
2023/12/18 07:49:54;;;;;;;;;;;16.90;64.10;;;;;;10234435;28;94646;-49
2023/12/18 07:54:56;;;;;;;;;;;16.90;64.20;;;;;;10221539;28;94597;-47
2023/12/18 07:59:58;;;;;;;;;;;16.90;64.30;;;;;;10228949;28;92636;-47
2023/12/18 08:05:02;;;;;;;;;;;16.90;64.30;;;;;;10240421;28;114629;-46
2023/12/18 08:10:04;;;;;;;;;;;16.80;64.20;;;;;;10228023;28;94387;-46
2023/12/18 08:15:06;;;;;;;;;;;16.80;64.20;;;;;;10236902;28;96820;-51
2023/12/18 08:20:08;;;;;;;;;;;16.80;64.20;;;;;;10236163;28;94473;-49
2023/12/18 08:25:09;;;;;;;;;;;16.80;64.20;;;;;;10227978;28;93344;-48
2023/12/18 08:30:11;;;;;;;;;;;16.70;64.10;;;;;;10248805;28;93471;-46
2023/12/18 08:35:13;;;;;;;;;;;16.70;64.10;;;;;;10225441;28;93421;-46
2023/12/18 08:40:15;;;;;;;;;;;16.70;64.10;;;;;;10223600;28;93224;-50
2023/12/18 08:45:17;;;;;;;;;;;16.70;64.00;;;;;;10209277;28;93386;-47
2023/12/18 08:50:18;;;;;;;;;;;16.70;64.10;;;;;;10222830;28;92736;-50
2023/12/18 08:55:20;;;;;;;;;;;16.70;64.00;;;;;;10232316;28;94393;-46
2023/12/18 09:00:22;;;;;;;;;;;16.60;64.00;;;;;;10233942;28;93812;-46
2023/12/18 09:05:24;;;;;;;;;;;16.60;64.00;;;;;;10217819;28;97193;-47
2023/12/18 09:10:26;;;;;;;;;;;16.60;64.00;;;;;;10232942;28;94079;-46
2023/12/18 09:15:27;;;;;;;;;;;16.60;64.10;;;;;;10227759;28;93485;-52
2023/12/18 09:20:29;;;;;;;;;;;16.60;64.20;;;;;;10248548;28;93396;-46
2023/12/18 09:25:31;;;;;;;;;;;16.50;64.10;;;;;;10225456;28;94205;-48
2023/12/18 09:30:33;;;;;;;;;;;16.50;64.20;;;;;;10204635;28;93703;-49
2023/12/18 09:35:35;;;;;;;;;;;16.50;64.10;;;;;;10232640;28;94508;-45
2023/12/18 09:40:37;;;;;;;;;;;16.50;64.10;;;;;;10228961;28;93316;-49
2023/12/18 09:45:38;;;;;;;;;;;16.50;64.10;;;;;;10239009;28;94814;-50
2023/12/18 09:50:40;;;;;;;;;;;16.50;64.20;;;;;;10227994;28;93427;-50
2023/12/18 09:55:42;;;;;;;;;;;16.50;64.20;;;;;;10223512;28;96893;-50
2023/12/18 10:00:44;;;;;;;;;;;16.50;64.20;;;;;;10235708;28;93426;-46
2023/12/18 10:05:46;;;;;;;;;;;16.40;64.10;;;;;;10237126;28;93356;-47
2023/12/18 10:10:48;;;;;;;;;;;16.40;64.10;;;;;;10215474;28;94218;-51
2023/12/18 10:15:51;;;;;;;;;;;16.40;64.10;;;;;;10230726;28;93569;-45
2023/12/18 10:20:54;;;;;;;;;;;16.40;64.10;;;;;;10244140;28;93365;-48
2023/12/18 10:26:01;;;;;;;;;;;16.40;64.10;;;;;;10232739;28;93887;-48
2023/12/18 10:31:04;;;;;;;;;;;16.40;64.20;;;;;;10220570;28;94187;-46
2023/12/18 10:36:08;;;;;;;;;;;16.40;64.20;;;;;;10238374;28;94299;-49
2023/12/18 10:41:11;;;;;;;;;;;16.40;64.30;;;;;;10225288;28;94662;-48
2023/12/18 10:46:13;;;;;;;;;;;16.40;64.30;;;;;;10220000;28;97937;-47
2023/12/18 10:51:17;;;;;;;;;;;16.30;64.20;;;;;;10227923;28;94898;-58
2023/12/18 10:56:21;;;;;;;;;;;16.30;64.20;;;;;;10207595;28;93404;-46
2023/12/18 11:01:23;;;;;;;;;;;16.30;64.30;;;;;;10239739;28;94480;-47
2023/12/18 11:06:25;;;;;;;;;;;16.30;64.30;;;;;;10239610;28;93521;-45
2023/12/18 11:11:27;;;;;;;;;;;16.30;64.20;;;;;;10225179;28;94497;-50
2023/12/18 11:16:41;;;;;;;;;;;16.30;64.20;;;;;;10226390;28;94446;-50
2023/12/18 11:21:42;;;;;;;;;;;16.30;64.20;;;;;;10221604;28;93675;-50
2023/12/18 11:26:45;;;;;;;;;;;16.30;64.30;;;;;;10219777;28;93788;-46
2023/12/18 11:31:47;;;;;;;;;;;16.30;64.30;;;;;;10243944;28;94230;-46
2023/12/18 11:36:49;;;;;;;;;;;16.30;64.30;;;;;;10220525;28;95888;-48
2023/12/18 11:41:51;;;;;;;;;;;16.30;64.20;;;;;;10244089;28;94530;-50
2023/12/18 11:46:53;;;;;;;;;;;16.30;64.20;;;;;;10255144;28;94541;-50
2023/12/18 11:51:58;;;;;;;;;;;16.30;64.30;;;;;;10234034;28;93753;-50
2023/12/18 11:56:59;;;;;;;;;;;16.30;64.20;;;;;;10225031;28;93476;-50
2023/12/18 12:02:01;;;;;;;;;;;16.30;64.20;;;;;;10241817;28;93797;-46
2023/12/18 12:07:03;;;;;;;;;;;16.30;64.20;;;;;;10238840;28;94081;-47
2023/12/18 12:12:05;;;;;;;;;;;16.30;64.10;;;;;;10228612;28;93810;-47
2023/12/18 12:17:07;;;;;;;;;;;16.30;64.10;;;;;;10240515;28;94408;-47
2023/12/18 12:22:09;;;;;;;;;;;16.30;64.20;;;;;;10238937;28;94443;-48
2023/12/18 12:27:11;;;;;;;;;;;16.30;64.10;;;;;;10227670;28;95902;-48
2023/12/18 12:32:14;;;;;;;;;;;16.30;64.30;;;;;;10233376;28;93704;-51
2023/12/18 12:37:16;;;;;;;;;;;16.30;64.20;;;;;;10226199;28;94552;-47
2023/12/18 12:42:18;;;;;;;;;;;16.30;64.20;;;;;;10218122;28;93384;-47
2023/12/18 12:47:20;;;;;;;;;;;16.30;64.20;;;;;;10228128;28;94434;-48
2023/12/18 12:52:21;;;;;;;;;;;16.30;64.20;;;;;;10242084;28;94739;-46
2023/12/18 12:57:23;;;;;;;;;;;16.20;64.20;;;;;;10214503;28;93968;-48
2023/12/18 13:02:25;;;;;;;;;;;16.20;64.20;;;;;;10239870;28;93767;-49
2023/12/18 13:07:27;;;;;;;;;;;16.20;64.20;;;;;;10222177;28;94694;-48
2023/12/18 13:12:29;;;;;;;;;;;16.20;64.30;;;;;;10207243;28;94380;-47
2023/12/18 13:17:31;;;;;;;;;;;16.20;64.30;;;;;;10206701;28;95668;-49
2023/12/18 13:22:33;;;;;;;;;;;16.20;64.30;;;;;;10222076;28;94455;-47
2023/12/18 13:27:35;;;;;;;;;;;16.20;64.30;;;;;;10223641;28;93487;-47
2023/12/18 13:32:39;;;;;;;;;;;16.20;64.20;;;;;;10235611;28;93992;-45
2023/12/18 13:37:41;;;;;;;;;;;16.20;64.30;;;;;;10217017;28;93848;-48
2023/12/18 13:42:43;;;;;;;;;;;16.20;64.20;;;;;;10216795;28;94488;-50
2023/12/18 13:47:45;;;;;;;;;;;16.20;64.20;;;;;;10226708;28;94534;-50
2023/12/18 13:52:48;;;;;;;;;;;16.20;64.20;;;;;;10222472;28;92802;-47
2023/12/18 13:57:50;;;;;;;;;;;16.10;64.20;;;;;;10243134;28;93270;-48
2023/12/18 14:02:53;;;;;;;;;;;16.20;64.30;;;;;;10247375;28;94677;-47
2023/12/18 14:07:54;;;;;;;;;;;16.10;64.20;;;;;;10231726;28;96932;-50
2023/12/18 14:12:56;;;;;;;;;;;16.10;64.20;;;;;;10242594;28;95953;-47
2023/12/18 14:17:58;;;;;;;;;;;16.10;64.30;;;;;;10220226;28;95149;-50
2023/12/18 14:23:00;;;;;;;;;;;16.10;64.30;;;;;;10229750;28;93469;-51
2023/12/18 14:28:01;;;;;;;;;;;16.10;64.30;;;;;;10223118;28;93447;-48
2023/12/18 14:33:03;;;;;;;;;;;16.10;64.30;;;;;;10214052;28;94396;-51
2023/12/18 14:38:05;;;;;;;;;;;16.10;64.20;;;;;;10231171;28;94521;-49
2023/12/18 14:43:07;;;;;;;;;;;16.10;64.30;;;;;;10229618;28;93745;-49
2023/12/18 14:48:09;;;;;;;;;;;16.10;64.30;;;;;;10242773;28;93717;-46
2023/12/18 14:53:16;;;;;;;;;;;16.10;64.30;;;;;;10245173;28;94468;-49
2023/12/18 14:58:18;;;;;;;;;;;16.10;64.30;;;;;;10229443;28;96876;-50
2023/12/18 15:03:19;;;;;;;;;;;16.10;64.30;;;;;;10222172;28;93522;-47
2023/12/18 15:08:21;;;;;;;;;;;16.10;64.30;;;;;;10221148;28;94056;-49
2023/12/18 15:13:23;;;;;;;;;;;16.00;64.30;;;;;;10221476;28;95083;-49
2023/12/18 15:18:25;;;;;;;;;;;16.10;64.30;;;;;;10235596;28;95164;-48
2023/12/18 15:23:27;;;;;;;;;;;16.10;64.30;;;;;;10227057;28;93438;-48
2023/12/18 15:28:29;;;;;;;;;;;16.00;64.20;;;;;;10220636;28;94479;-47
2023/12/18 15:33:34;;;;;;;;;;;16.00;64.20;;;;;;10237995;28;93876;-47
2023/12/18 15:38:38;;;;;;;;;;;16.00;64.20;;;;;;10234791;28;93436;-63
2023/12/18 15:43:39;;;;;;;;;;;16.10;64.20;;;;;;10217938;28;93389;-51
2023/12/18 15:48:41;;;;;;;;;;;16.00;64.10;;;;;;10228738;28;97163;-50
2023/12/18 15:53:45;;;;;;;;;;;16.10;64.10;;;;;;10230435;28;94614;-49
2023/12/18 15:58:47;;;;;;;;;;;16.10;64.10;;;;;;10207788;28;93615;-51
2023/12/18 16:03:49;;;;;;;;;;;16.10;64.10;;;;;;10238597;28;93799;-49
2023/12/18 16:08:50;;;;;;;;;;;16.00;64.10;;;;;;10230106;28;93348;-47
2023/12/18 16:13:52;;;;;;;;;;;16.00;64.10;;;;;;10226766;28;94314;-47
2023/12/18 16:18:56;;;;;;;;;;;16.10;64.10;;;;;;10234456;28;93553;-49
2023/12/18 16:23:58;;;;;;;;;;;16.00;64.10;;;;;;10226627;28;92917;-50
2023/12/18 16:29:00;;;;;;;;;;;16.00;64.00;;;;;;10236577;28;93433;-47
2023/12/18 16:34:02;;;;;;;;;;;16.00;64.00;;;;;;10225331;28;93366;-49
2023/12/18 16:39:05;;;;;;;;;;;16.00;64.10;;;;;;10222649;28;95849;-53
2023/12/18 16:44:07;;;;;;;;;;;16.00;64.10;;;;;;10229450;28;93535;-49
2023/12/18 16:49:09;;;;;;;;;;;16.00;64.10;;;;;;10232082;28;93428;-46
2023/12/18 16:54:11;;;;;;;;;;;16.00;64.10;;;;;;10226131;28;94927;-47
2023/12/18 16:59:13;;;;;;;;;;;16.00;64.10;;;;;;10255867;28;93107;-45
2023/12/18 17:04:15;;;;;;;;;;;16.00;64.10;;;;;;10234991;28;94586;-54
2023/12/18 17:09:16;;;;;;;;;;;16.00;64.30;;;;;;10247378;28;93455;-48
2023/12/18 17:14:18;;;;;;;;;;;16.10;64.50;;;;;;10232984;28;92343;-48
2023/12/18 17:19:21;;;;;;;;;;;16.40;64.30;;;;;;10243969;28;94397;-50
2023/12/18 17:24:22;;;;;;;;;;;16.70;63.70;;;;;;10233426;28;93602;-50
2023/12/18 17:29:24;;;;;;;;;;;17.10;63.10;;;;;;10227569;28;96223;-51
2023/12/18 17:34:26;;;;;;;;;;;17.40;65.90;;;;;;10220938;28;94402;-47
2023/12/18 17:39:28;;;;;;;;;;;17.70;63.80;;;;;;10223365;28;94754;-49
2023/12/18 17:44:30;;;;;;;;;;;18.00;62.60;;;;;;10236150;28;93484;-52
2023/12/18 17:49:33;;;;;;;;;;;18.20;61.80;;;;;;10243835;28;93447;-50
2023/12/18 17:54:35;;;;;;;;;;;18.20;61.50;;;;;;10222344;28;94069;-50
2023/12/18 17:59:37;;;;;;;;;;;18.20;61.60;;;;;;10215985;28;94837;-50
2023/12/18 18:04:39;;;;;;;;;;;18.10;61.80;;;;;;10244171;28;93729;-50
2023/12/18 18:09:41;;;;;;;;;;;18.00;62.10;;;;;;10214885;28;94376;-48
2023/12/18 18:14:45;;;;;;;;;;;18.00;62.30;;;;;;10221250;28;93697;-46
2023/12/18 18:19:47;;;;;;;;;;;18.00;62.30;;;;;;10244690;28;95868;-50
2023/12/18 18:24:50;;;;;;;;;;;18.00;62.10;;;;;;10244638;28;93713;-47
2023/12/18 18:29:52;;;;;;;;;;;18.00;62.10;;;;;;10224341;28;94485;-49
2023/12/18 18:34:54;;;;;;;;;;;18.00;62.10;;;;;;10227301;28;94089;-48
2023/12/18 18:39:55;;;;;;;;;;;17.90;62.30;;;;;;10264998;28;94599;-51
2023/12/18 18:44:57;;;;;;;;;;;18.00;62.40;;;;;;10261054;28;94110;-48
2023/12/18 18:49:59;;;;;;;;;;;18.00;62.20;;;;;;10228962;28;94287;-47
2023/12/18 18:55:01;;;;;;;;;;;18.00;62.20;;;;;;10209386;28;93061;-49
2023/12/18 19:00:03;;;;;;;;;;;17.90;62.30;;;;;;10231390;28;95003;-49
2023/12/18 19:05:05;;;;;;;;;;;17.90;63.40;;;;;;10210016;28;94643;-46
2023/12/18 19:10:07;;;;;;;;;;;18.00;62.30;;;;;;10223261;28;95698;-47
2023/12/18 19:15:09;;;;;;;;;;;18.00;62.30;;;;;;10239066;28;94537;-50
2023/12/18 19:20:11;;;;;;;;;;;18.00;62.30;;;;;;10229080;28;94440;-50
2023/12/18 19:25:13;;;;;;;;;;;18.00;62.50;;;;;;10229090;28;93664;-49
2023/12/18 19:30:15;;;;;;;;;;;18.10;62.30;;;;;;10232874;28;94718;-50
2023/12/18 19:35:17;;;;;;;;;;;18.10;62.10;;;;;;10240251;28;93585;-46
2023/12/18 19:40:19;;;;;;;;;;;18.10;62.10;;;;;;10237528;28;93857;-51
2023/12/18 19:45:21;;;;;;;;;;;18.10;62.10;;;;;;10225216;28;96515;-49
2023/12/18 19:50:23;;;;;;;;;;;18.10;62.20;;;;;;10218838;28;93546;-47
2023/12/18 19:55:25;;;;;;;;;;;18.20;62.10;;;;;;10231762;28;94442;-47
2023/12/18 20:00:27;;;;;;;;;;;18.20;62.00;;;;;;10228774;28;96306;-50
2023/12/18 20:05:29;;;;;;;;;;;18.10;62.00;;;;;;10237460;28;93771;-47
2023/12/18 20:10:30;;;;;;;;;;;18.10;62.10;;;;;;10223711;28;93798;-61
2023/12/18 20:15:32;;;;;;;;;;;18.20;62.00;;;;;;10228616;28;93678;-49
2023/12/18 20:20:34;;;;;;;;;;;18.30;61.80;;;;;;10231088;28;94716;-48
2023/12/18 20:25:36;;;;;;;;;;;18.20;61.60;;;;;;10235641;28;93914;-48
2023/12/18 20:30:38;;;;;;;;;;;18.20;61.80;;;;;;10242813;28;93959;-50
2023/12/18 20:35:40;;;;;;;;;;;18.30;61.90;;;;;;10241887;28;93595;-49
2023/12/18 20:40:42;;;;;;;;;;;18.20;61.60;;;;;;10232215;28;94628;-48
2023/12/18 20:45:49;;;;;;;;;;;18.30;61.70;;;;;;10232524;28;94450;-49
2023/12/18 20:50:51;;;;;;;;;;;18.20;61.60;;;;;;10249999;28;96252;-48
2023/12/18 20:55:53;;;;;;;;;;;18.10;61.70;;;;;;10232397;28;94710;-49
2023/12/18 21:00:54;;;;;;;;;;;18.00;61.90;;;;;;10243059;28;94820;-49
2023/12/18 21:05:56;;;;;;;;;;;18.00;62.10;;;;;;10238549;28;93143;-52
2023/12/18 21:10:58;;;;;;;;;;;17.90;62.20;;;;;;10222158;28;94719;-50
2023/12/18 21:16:00;;;;;;;;;;;17.80;62.40;;;;;;10233854;28;93889;-47
2023/12/18 21:21:02;;;;;;;;;;;17.70;62.60;;;;;;10219003;28;93826;-51
2023/12/18 21:26:06;;;;;;;;;;;17.70;62.90;;;;;;10244121;28;94062;-46
2023/12/18 21:31:08;;;;;;;;;;;17.60;63.00;;;;;;10257287;28;93600;-49
2023/12/18 21:36:12;;;;;;;;;;;17.50;63.10;;;;;;10239431;28;93607;-49
2023/12/18 21:41:15;;;;;;;;;;;17.50;63.30;;;;;;10236318;28;96252;-50
2023/12/18 21:46:16;;;;;;;;;;;17.40;63.30;;;;;;10218581;28;94559;-48
2023/12/18 21:51:20;;;;;;;;;;;17.30;63.00;;;;;;10246675;28;94558;-50
2023/12/18 21:56:35;;;;;;;;;;;17.30;62.80;;;;;;10237072;28;93574;-48
2023/12/18 22:01:36;;;;;;;;;;;17.20;62.40;;;;;;10248246;28;93455;-46
2023/12/18 22:06:40;;;;;;;;;;;17.20;62.10;;;;;;10234971;28;93286;-49
2023/12/18 22:11:44;;;;;;;;;;;17.20;62.00;;;;;;10223185;28;93827;-51
2023/12/18 22:16:46;;;;;;;;;;;17.10;62.60;;;;;;10241453;28;93865;-50
2023/12/18 22:21:48;;;;;;;;;;;17.10;61.60;;;;;;10234259;28;94667;-48
2023/12/18 22:26:52;;;;;;;;;;;17.10;61.40;;;;;;10226304;28;93443;-50
2023/12/18 22:31:57;;;;;;;;;;;17.00;61.30;;;;;;10222987;28;96768;-49
2023/12/18 22:36:59;;;;;;;;;;;17.00;61.60;;;;;;10234271;28;93915;-50
2023/12/18 22:42:01;;;;;;;;;;;16.90;61.80;;;;;;10219806;28;93467;-49
2023/12/18 22:47:03;;;;;;;;;;;16.90;61.80;;;;;;10241006;28;94814;-47
2023/12/18 22:52:05;;;;;;;;;;;16.90;61.60;;;;;;10240118;28;94489;-51
2023/12/18 22:57:07;;;;;;;;;;;16.90;61.50;;;;;;10237478;28;93509;-46
2023/12/18 23:02:09;;;;;;;;;;;16.90;61.30;;;;;;10232910;28;93393;-49
2023/12/18 23:07:11;;;;;;;;;;;16.90;61.10;;;;;;10240856;28;92589;-49
2023/12/18 23:12:12;;;;;;;;;;;16.90;60.90;;;;;;10218975;28;94516;-50
2023/12/18 23:17:15;;;;;;;;;;;16.80;60.60;;;;;;10220424;28;93536;-49
2023/12/18 23:22:17;;;;;;;;;;;16.80;60.40;;;;;;10224353;28;95787;-50
2023/12/18 23:27:18;;;;;;;;;;;16.70;60.50;;;;;;10232567;28;93790;-51
2023/12/18 23:32:20;;;;;;;;;;;16.70;60.90;;;;;;10229204;28;94168;-48
2023/12/18 23:37:22;;;;;;;;;;;16.70;61.10;;;;;;10226233;28;93904;-50
2023/12/18 23:42:24;;;;;;;;;;;16.70;61.10;;;;;;10213429;28;94850;-48
2023/12/18 23:47:27;;;;;;;;;;;16.70;61.00;;;;;;10231986;28;93363;-48
2023/12/18 23:52:29;;;;;;;;;;;16.70;60.80;;;;;;10232489;28;93580;-48
2023/12/18 23:57:30;;;;;;;;;;;16.60;60.50;;;;;;10215941;28;92465;-50
